Terminal Aerodrome Forecast
Issued by NWS

Home | Current Version | Previous Version | Text Only | Print | Product List | Glossary Off
Versions: 1 2 3 4 5 6 7 8 9 10 11 12 13 14 15 16 17 18 19 20 21 22 23

442
FTUS43 KABR 142207 AAA
TAFMBG
TAF AMD
KMBG 142207Z 1422/1518 36008KT P6SM BKN120
     FM150200 31009KT P6SM BKN090=

USA.gov is the U.S. government's official web portal to all federal, state and local government web resources and services.